sensor_id;sensor_type;location;lat;lon;timestamp;pressure;altitude;pressure_sealevel;temperature;humidity
17505;BME280;8870;50.950;11.762;2023-04-05T00:04:49;99090.50;;;-1.23;100.00
17505;BME280;8870;50.950;11.762;2023-04-05T00:10:24;99096.13;;;-1.31;100.00
17505;BME280;8870;50.950;11.762;2023-04-05T00:15:48;99084.81;;;-1.35;100.00
17505;BME280;8870;50.950;11.762;2023-04-05T00:21:23;99090.53;;;-1.44;100.00
17505;BME280;8870;50.950;11.762;2023-04-05T00:26:43;99074.09;;;-1.51;100.00
17505;BME280;8870;50.950;11.762;2023-04-05T00:32:18;99083.16;;;-1.57;100.00
17505;BME280;8870;50.950;11.762;2023-04-05T00:37:41;99078.28;;;-1.66;100.00
17505;BME280;8870;50.950;11.762;2023-04-05T00:43:14;99076.69;;;-1.70;100.00
17505;BME280;8870;50.950;11.762;2023-04-05T00:48:38;99072.47;;;-1.74;100.00
17505;BME280;8870;50.950;11.762;2023-04-05T00:54:11;99068.31;;;-1.80;100.00
17505;BME280;8870;50.950;11.762;2023-04-05T00:59:31;99060.31;;;-1.78;100.00
17505;BME280;8870;50.950;11.762;2023-04-05T01:05:10;99063.09;;;-1.81;100.00
17505;BME280;8870;50.950;11.762;2023-04-05T01:10:39;99054.25;;;-1.80;100.00
17505;BME280;8870;50.950;11.762;2023-04-05T01:16:17;99046.47;;;-1.83;100.00
17505;BME280;8870;50.950;11.762;2023-04-05T01:27:55;99055.56;;;-1.91;100.00
17505;BME280;8870;50.950;11.762;2023-04-05T01:33:25;99050.56;;;-1.97;100.00
17505;BME280;8870;50.950;11.762;2023-04-05T01:39:03;99049.78;;;-1.99;100.00
17505;BME280;8870;50.950;11.762;2023-04-05T01:44:22;99041.06;;;-2.01;100.00
17505;BME280;8870;50.950;11.762;2023-04-05T01:49:57;99039.47;;;-2.05;100.00
17505;BME280;8870;50.950;11.762;2023-04-05T01:55:23;99045.69;;;-2.06;100.00
17505;BME280;8870;50.950;11.762;2023-04-05T02:00:55;99031.53;;;-2.05;100.00
17505;BME280;8870;50.950;11.762;2023-04-05T02:06:17;99038.53;;;-2.04;100.00
17505;BME280;8870;50.950;11.762;2023-04-05T02:17:17;99043.19;;;-2.09;100.00
17505;BME280;8870;50.950;11.762;2023-04-05T02:22:57;99034.34;;;-2.08;100.00
17505;BME280;8870;50.950;11.762;2023-04-05T02:28:17;99033.44;;;-2.07;100.00
17505;BME280;8870;50.950;11.762;2023-04-05T02:33:52;99037.78;;;-2.06;100.00
17505;BME280;8870;50.950;11.762;2023-04-05T02:39:17;99031.53;;;-2.05;100.00
17505;BME280;8870;50.950;11.762;2023-04-05T02:44:54;99027.84;;;-2.01;100.00
17505;BME280;8870;50.950;11.762;2023-04-05T02:50:15;99025.44;;;-2.06;100.00
17505;BME280;8870;50.950;11.762;2023-04-05T02:55:54;99023.78;;;-2.08;100.00
17505;BME280;8870;50.950;11.762;2023-04-05T03:01:28;99026.28;;;-2.05;100.00
17505;BME280;8870;50.950;11.762;2023-04-05T03:06:59;99021.88;;;-2.05;100.00
17505;BME280;8870;50.950;11.762;2023-04-05T03:12:34;99014.88;;;-2.06;100.00
17505;BME280;8870;50.950;11.762;2023-04-05T03:17:57;99024.22;;;-1.98;100.00
17505;BME280;8870;50.950;11.762;2023-04-05T03:23:32;99029.50;;;-1.98;100.00
17505;BME280;8870;50.950;11.762;2023-04-05T03:29:05;99014.41;;;-1.95;100.00
17505;BME280;8870;50.950;11.762;2023-04-05T03:34:43;99016.75;;;-1.89;100.00
17505;BME280;8870;50.950;11.762;2023-04-05T03:40:01;99024.59;;;-1.87;100.00
17505;BME280;8870;50.950;11.762;2023-04-05T03:45:37;99020.19;;;-1.87;100.00
17505;BME280;8870;50.950;11.762;2023-04-05T03:50:56;99029.84;;;-1.86;100.00
17505;BME280;8870;50.950;11.762;2023-04-05T03:56:31;99024.56;;;-1.86;100.00
17505;BME280;8870;50.950;11.762;2023-04-05T04:02:10;99017.34;;;-1.82;100.00
17505;BME280;8870;50.950;11.762;2023-04-05T04:07:22;99021.00;;;-1.84;100.00
17505;BME280;8870;50.950;11.762;2023-04-05T04:18:25;99015.50;;;-1.80;100.00
17505;BME280;8870;50.950;11.762;2023-04-05T04:24:22;99027.00;;;-1.81;100.00
17505;BME280;8870;50.950;11.762;2023-04-05T04:30:01;99020.91;;;-1.83;100.00
17505;BME280;8870;50.950;11.762;2023-04-05T04:35:49;99026.91;;;-1.79;100.00
17505;BME280;8870;50.950;11.762;2023-04-05T04:41:27;99020.78;;;-1.80;100.00
17505;BME280;8870;50.950;11.762;2023-04-05T04:47:19;99025.19;;;-1.80;100.00
17505;BME280;8870;50.950;11.762;2023-04-05T04:52:52;99029.63;;;-1.81;100.00
17505;BME280;8870;50.950;11.762;2023-04-05T04:58:23;99018.06;;;-1.78;100.00
17505;BME280;8870;50.950;11.762;2023-04-05T05:03:43;99013.66;;;-1.78;100.00
17505;BME280;8870;50.950;11.762;2023-04-05T05:09:19;99025.06;;;-1.77;100.00
17505;BME280;8870;50.950;11.762;2023-04-05T05:14:38;99013.22;;;-1.68;100.00
17505;BME280;8870;50.950;11.762;2023-04-05T05:20:11;99033.78;;;-1.75;100.00
17505;BME280;8870;50.950;11.762;2023-04-05T05:25:31;99017.94;;;-1.75;100.00
17505;BME280;8870;50.950;11.762;2023-04-05T05:31:03;99026.50;;;-1.70;100.00
17505;BME280;8870;50.950;11.762;2023-04-05T05:36:22;99019.34;;;-1.68;100.00
17505;BME280;8870;50.950;11.762;2023-04-05T05:41:55;99013.81;;;-1.62;100.00
17505;BME280;8870;50.950;11.762;2023-04-05T05:47:16;99009.16;;;-1.57;100.00
17505;BME280;8870;50.950;11.762;2023-04-05T05:52:47;99014.19;;;-1.50;100.00
17505;BME280;8870;50.950;11.762;2023-04-05T05:58:11;99015.72;;;-1.46;100.00
17505;BME280;8870;50.950;11.762;2023-04-05T06:03:43;99012.97;;;-1.43;100.00
17505;BME280;8870;50.950;11.762;2023-04-05T06:09:01;99011.94;;;-1.41;100.00
17505;BME280;8870;50.950;11.762;2023-04-05T06:14:21;99008.03;;;-1.32;100.00
17505;BME280;8870;50.950;11.762;2023-04-05T06:19:53;99014.09;;;-1.30;100.00
17505;BME280;8870;50.950;11.762;2023-04-05T06:25:11;99012.97;;;-1.24;100.00
17505;BME280;8870;50.950;11.762;2023-04-05T06:30:44;99018.47;;;-1.10;100.00
17505;BME280;8870;50.950;11.762;2023-04-05T06:36:03;99014.66;;;-1.04;100.00
17505;BME280;8870;50.950;11.762;2023-04-05T06:41:35;99008.78;;;-0.91;100.00
17505;BME280;8870;50.950;11.762;2023-04-05T06:47:11;99013.88;;;-0.69;100.00
17505;BME280;8870;50.950;11.762;2023-04-05T06:52:31;99014.13;;;-0.56;100.00
17505;BME280;8870;50.950;11.762;2023-04-05T06:58:03;99014.38;;;-0.26;100.00
17505;BME280;8870;50.950;11.762;2023-04-05T07:03:23;99017.41;;;-0.16;100.00
17505;BME280;8870;50.950;11.762;2023-04-05T07:08:56;99014.91;;;-0.02;100.00
17505;BME280;8870;50.950;11.762;2023-04-05T07:14:14;99007.41;;;0.07;100.00
17505;BME280;8870;50.950;11.762;2023-04-05T07:19:48;99006.59;;;0.22;100.00
17505;BME280;8870;50.950;11.762;2023-04-05T07:25:19;99007.25;;;0.43;100.00
17505;BME280;8870;50.950;11.762;2023-04-05T07:30:37;99006.00;;;0.67;100.00
17505;BME280;8870;50.950;11.762;2023-04-05T07:36:11;98999.44;;;0.90;100.00
17505;BME280;8870;50.950;11.762;2023-04-05T07:41:29;98998.66;;;1.04;100.00
17505;BME280;8870;50.950;11.762;2023-04-05T07:47:00;98997.78;;;1.19;100.00
17505;BME280;8870;50.950;11.762;2023-04-05T07:52:21;99000.31;;;1.37;100.00
17505;BME280;8870;50.950;11.762;2023-04-05T07:57:52;99000.03;;;1.58;100.00
17505;BME280;8870;50.950;11.762;2023-04-05T08:03:10;98999.88;;;1.75;100.00
17505;BME280;8870;50.950;11.762;2023-04-05T08:08:45;99000.00;;;1.88;100.00
17505;BME280;8870;50.950;11.762;2023-04-05T08:14:03;99001.63;;;1.91;100.00
17505;BME280;8870;50.950;11.762;2023-04-05T08:19:34;99000.88;;;2.03;100.00
17505;BME280;8870;50.950;11.762;2023-04-05T08:25:09;98991.56;;;2.10;100.00
17505;BME280;8870;50.950;11.762;2023-04-05T08:30:27;98992.06;;;2.31;100.00
17505;BME280;8870;50.950;11.762;2023-04-05T08:36:03;98986.00;;;2.44;100.00
17505;BME280;8870;50.950;11.762;2023-04-05T08:41:25;98981.69;;;2.70;100.00
17505;BME280;8870;50.950;11.762;2023-04-05T08:47:04;98985.09;;;2.87;100.00
17505;BME280;8870;50.950;11.762;2023-04-05T08:52:22;98979.31;;;3.07;100.00
17505;BME280;8870;50.950;11.762;2023-04-05T08:57:57;98985.34;;;3.24;100.00
17505;BME280;8870;50.950;11.762;2023-04-05T09:03:21;98984.13;;;3.43;100.00
17505;BME280;8870;50.950;11.762;2023-04-05T09:08:54;98975.22;;;3.57;100.00
17505;BME280;8870;50.950;11.762;2023-04-05T09:14:16;98972.91;;;3.78;100.00
17505;BME280;8870;50.950;11.762;2023-04-05T09:19:47;98971.63;;;3.96;100.00
17505;BME280;8870;50.950;11.762;2023-04-05T09:25:33;98972.50;;;3.97;80.61
17505;BME280;8870;50.950;11.762;2023-04-05T09:30:55;98966.75;;;4.16;100.00
17505;BME280;8870;50.950;11.762;2023-04-05T09:36:27;98974.72;;;4.42;100.00
17505;BME280;8870;50.950;11.762;2023-04-05T09:42:03;98966.41;;;4.46;80.08
17505;BME280;8870;50.950;11.762;2023-04-05T09:47:38;98971.59;;;4.74;70.32
17505;BME280;8870;50.950;11.762;2023-04-05T09:53:07;98968.50;;;5.04;75.64
17505;BME280;8870;50.950;11.762;2023-04-05T09:58:40;98968.59;;;5.03;64.69
17505;BME280;8870;50.950;11.762;2023-04-05T10:04:01;98968.09;;;4.98;66.02
17505;BME280;8870;50.950;11.762;2023-04-05T10:09:32;98963.94;;;4.93;63.54
17505;BME280;8870;50.950;11.762;2023-04-05T10:14:50;98971.53;;;5.00;66.34
17505;BME280;8870;50.950;11.762;2023-04-05T10:20:24;98959.69;;;5.15;65.60
17505;BME280;8870;50.950;11.762;2023-04-05T10:26:03;98958.44;;;5.32;64.56
17505;BME280;8870;50.950;11.762;2023-04-05T10:31:30;98956.09;;;5.52;67.43
17505;BME280;8870;50.950;11.762;2023-04-05T10:37:12;98947.72;;;5.57;64.62
17505;BME280;8870;50.950;11.762;2023-04-05T10:42:39;98951.50;;;5.65;65.24
17505;BME280;8870;50.950;11.762;2023-04-05T10:48:18;98941.72;;;5.89;68.44
17505;BME280;8870;50.950;11.762;2023-04-05T10:53:43;98934.88;;;6.09;67.80
17505;BME280;8870;50.950;11.762;2023-04-05T10:59:15;98940.22;;;6.20;67.32
17505;BME280;8870;50.950;11.762;2023-04-05T11:04:34;98936.09;;;6.39;66.58
17505;BME280;8870;50.950;11.762;2023-04-05T11:10:15;98928.66;;;6.08;58.32
17505;BME280;8870;50.950;11.762;2023-04-05T11:15:34;98926.59;;;6.12;64.18
17505;BME280;8870;50.950;11.762;2023-04-05T11:21:08;98916.16;;;5.73;59.95
17505;BME280;8870;50.950;11.762;2023-04-05T11:26:34;98917.97;;;5.61;61.41
17505;BME280;8870;50.950;11.762;2023-04-05T11:32:22;98914.72;;;5.33;57.93
17505;BME280;8870;50.950;11.762;2023-04-05T11:38:06;98911.94;;;5.35;59.40
17505;BME280;8870;50.950;11.762;2023-04-05T11:43:40;98899.09;;;5.51;61.96
17505;BME280;8870;50.950;11.762;2023-04-05T11:48:59;98896.44;;;5.51;63.67
17505;BME280;8870;50.950;11.762;2023-04-05T11:54:32;98901.03;;;5.49;62.32
17505;BME280;8870;50.950;11.762;2023-04-05T11:59:54;98888.66;;;5.60;58.64
17505;BME280;8870;50.950;11.762;2023-04-05T12:05:25;98883.44;;;6.05;59.30
17505;BME280;8870;50.950;11.762;2023-04-05T12:10:43;98881.94;;;6.46;62.17
17505;BME280;8870;50.950;11.762;2023-04-05T12:16:17;98881.25;;;6.88;59.86
17505;BME280;8870;50.950;11.762;2023-04-05T12:21:36;98884.78;;;7.21;57.91
17505;BME280;8870;50.950;11.762;2023-04-05T12:27:07;98872.06;;;7.56;59.85
17505;BME280;8870;50.950;11.762;2023-04-05T12:32:35;98865.28;;;7.83;55.78
17505;BME280;8870;50.950;11.762;2023-04-05T12:38:06;98863.72;;;7.80;53.10
17505;BME280;8870;50.950;11.762;2023-04-05T12:43:24;98850.94;;;8.25;58.66
17505;BME280;8870;50.950;11.762;2023-04-05T12:48:58;98848.66;;;8.51;51.46
17505;BME280;8870;50.950;11.762;2023-04-05T12:54:20;98833.44;;;8.81;53.25
17505;BME280;8870;50.950;11.762;2023-04-05T12:59:53;98836.56;;;8.96;54.92
17505;BME280;8870;50.950;11.762;2023-04-05T13:05:28;98823.66;;;9.39;53.78
17505;BME280;8870;50.950;11.762;2023-04-05T13:10:48;98815.88;;;9.46;54.23
17505;BME280;8870;50.950;11.762;2023-04-05T13:16:19;98816.88;;;9.92;53.67
17505;BME280;8870;50.950;11.762;2023-04-05T13:21:40;98808.88;;;10.10;51.85
17505;BME280;8870;50.950;11.762;2023-04-05T13:27:12;98792.84;;;9.81;47.29
17505;BME280;8870;50.950;11.762;2023-04-05T13:32:31;98788.66;;;9.59;51.79
17505;BME280;8870;50.950;11.762;2023-04-05T13:38:04;98792.41;;;10.13;49.61
17505;BME280;8870;50.950;11.762;2023-04-05T13:43:23;98783.22;;;10.34;49.81
17505;BME280;8870;50.950;11.762;2023-04-05T13:48:54;98786.25;;;10.77;47.43
17505;BME280;8870;50.950;11.762;2023-04-05T13:54:15;98773.75;;;10.94;47.78
17505;BME280;8870;50.950;11.762;2023-04-05T13:59:46;98764.75;;;10.85;47.50
17505;BME280;8870;50.950;11.762;2023-04-05T14:05:12;98765.22;;;11.25;49.59
17505;BME280;8870;50.950;11.762;2023-04-05T14:10:45;98750.91;;;11.51;44.92
17505;BME280;8870;50.950;11.762;2023-04-05T14:16:18;98742.97;;;12.10;48.73
17505;BME280;8870;50.950;11.762;2023-04-05T14:21:50;98746.53;;;12.19;46.92
17505;BME280;8870;50.950;11.762;2023-04-05T14:27:09;98741.69;;;12.31;47.06
17505;BME280;8870;50.950;11.762;2023-04-05T14:32:46;98738.16;;;12.39;43.83
17505;BME280;8870;50.950;11.762;2023-04-05T14:38:04;98738.72;;;12.84;46.54
17505;BME280;8870;50.950;11.762;2023-04-05T14:43:37;98746.34;;;13.30;44.78
17505;BME280;8870;50.950;11.762;2023-04-05T14:48:59;98741.09;;;13.45;47.13
17505;BME280;8870;50.950;11.762;2023-04-05T14:54:31;98739.59;;;12.92;44.00
17505;BME280;8870;50.950;11.762;2023-04-05T14:59:49;98735.84;;;12.69;46.63
17505;BME280;8870;50.950;11.762;2023-04-05T15:05:24;98729.28;;;12.79;44.43
17505;BME280;8870;50.950;11.762;2023-04-05T15:10:43;98724.69;;;13.13;43.60
17505;BME280;8870;50.950;11.762;2023-04-05T15:16:16;98727.16;;;13.64;43.63
17505;BME280;8870;50.950;11.762;2023-04-05T15:21:51;98713.78;;;13.71;41.18
17505;BME280;8870;50.950;11.762;2023-04-05T15:27:09;98715.53;;;13.55;43.28
17505;BME280;8870;50.950;11.762;2023-04-05T15:32:28;98713.53;;;13.16;44.16
17505;BME280;8870;50.950;11.762;2023-04-05T15:38:03;98712.16;;;12.54;42.02
17505;BME280;8870;50.950;11.762;2023-04-05T15:43:21;98710.84;;;12.67;48.13
17505;BME280;8870;50.950;11.762;2023-04-05T15:48:52;98706.94;;;12.61;42.17
17505;BME280;8870;50.950;11.762;2023-04-05T15:54:13;98708.72;;;12.19;48.29
17505;BME280;8870;50.950;11.762;2023-04-05T15:59:45;98714.97;;;11.77;47.80
17505;BME280;8870;50.950;11.762;2023-04-05T16:05:05;98713.19;;;11.59;48.29
17505;BME280;8870;50.950;11.762;2023-04-05T16:10:40;98717.38;;;11.27;46.87
17505;BME280;8870;50.950;11.762;2023-04-05T16:15:59;98710.03;;;11.37;47.91
17505;BME280;8870;50.950;11.762;2023-04-05T16:21:50;98707.59;;;11.52;47.99
17505;BME280;8870;50.950;11.762;2023-04-05T16:27:12;98711.19;;;11.08;46.51
17505;BME280;8870;50.950;11.762;2023-04-05T16:32:44;98707.50;;;11.09;46.07
17505;BME280;8870;50.950;11.762;2023-04-05T16:38:02;98707.63;;;11.08;46.14
17505;BME280;8870;50.950;11.762;2023-04-05T16:43:36;98705.38;;;10.95;44.82
17505;BME280;8870;50.950;11.762;2023-04-05T16:48:55;98704.56;;;10.58;46.37
17505;BME280;8870;50.950;11.762;2023-04-05T16:54:28;98713.31;;;10.60;48.23
17505;BME280;8870;50.950;11.762;2023-04-05T16:59:49;98704.38;;;10.78;49.29
17505;BME280;8870;50.950;11.762;2023-04-05T17:05:20;98703.38;;;10.79;49.50
17505;BME280;8870;50.950;11.762;2023-04-05T17:10:38;98710.28;;;10.27;48.48
17505;BME280;8870;50.950;11.762;2023-04-05T17:16:12;98701.88;;;9.84;49.08
17505;BME280;8870;50.950;11.762;2023-04-05T17:21:44;98708.25;;;9.08;48.80
17505;BME280;8870;50.950;11.762;2023-04-05T17:27:03;98707.59;;;8.67;51.29
17505;BME280;8870;50.950;11.762;2023-04-05T17:32:38;98717.16;;;8.10;49.68
17505;BME280;8870;50.950;11.762;2023-04-05T17:37:56;98709.69;;;7.73;53.38
17505;BME280;8870;50.950;11.762;2023-04-05T17:43:29;98707.25;;;7.29;52.03
17505;BME280;8870;50.950;11.762;2023-04-05T17:48:50;98710.97;;;6.86;53.48
17505;BME280;8870;50.950;11.762;2023-04-05T17:54:22;98706.47;;;6.54;54.00
17505;BME280;8870;50.950;11.762;2023-04-05T17:59:40;98711.22;;;6.17;55.40
17505;BME280;8870;50.950;11.762;2023-04-05T18:05:16;98710.81;;;5.78;55.06
17505;BME280;8870;50.950;11.762;2023-04-05T18:10:34;98719.09;;;5.52;56.47
17505;BME280;8870;50.950;11.762;2023-04-05T18:16:06;98717.75;;;5.24;56.38
17505;BME280;8870;50.950;11.762;2023-04-05T18:21:40;98722.72;;;5.17;59.14
17505;BME280;8870;50.950;11.762;2023-04-05T18:26:59;98734.09;;;5.08;63.02
17505;BME280;8870;50.950;11.762;2023-04-05T18:32:30;98736.13;;;4.82;62.11
17505;BME280;8870;50.950;11.762;2023-04-05T18:37:51;98747.00;;;4.67;64.05
17505;BME280;8870;50.950;11.762;2023-04-05T18:43:22;98749.97;;;4.51;64.47
17505;BME280;8870;50.950;11.762;2023-04-05T18:48:40;98760.22;;;4.44;66.39
17505;BME280;8870;50.950;11.762;2023-04-05T18:54:18;98760.78;;;4.37;66.75
17505;BME280;8870;50.950;11.762;2023-04-05T18:59:36;98753.97;;;4.32;70.66
17505;BME280;8870;50.950;11.762;2023-04-05T19:05:08;98763.19;;;4.28;73.30
17505;BME280;8870;50.950;11.762;2023-04-05T19:10:32;98767.88;;;4.25;77.54
17505;BME280;8870;50.950;11.762;2023-04-05T19:16:03;98766.81;;;4.27;78.46
17505;BME280;8870;50.950;11.762;2023-04-05T19:21:38;98767.03;;;4.24;81.08
17505;BME280;8870;50.950;11.762;2023-04-05T19:27:01;98765.53;;;4.20;82.29
17505;BME280;8870;50.950;11.762;2023-04-05T19:32:32;98767.47;;;4.18;82.24
17505;BME280;8870;50.950;11.762;2023-04-05T19:37:50;98769.16;;;4.19;85.27
17505;BME280;8870;50.950;11.762;2023-04-05T19:54:44;98770.84;;;3.96;100.00
17505;BME280;8870;50.950;11.762;2023-04-05T20:00:30;98762.38;;;3.78;100.00
17505;BME280;8870;50.950;11.762;2023-04-05T20:06:02;98758.97;;;3.76;100.00
17505;BME280;8870;50.950;11.762;2023-04-05T20:11:38;98761.63;;;3.76;98.14
17505;BME280;8870;50.950;11.762;2023-04-05T20:22:58;98745.41;;;3.79;99.87
17505;BME280;8870;50.950;11.762;2023-04-05T20:28:40;98743.72;;;3.78;96.46
17505;BME280;8870;50.950;11.762;2023-04-05T20:34:19;98728.06;;;3.73;98.84
17505;BME280;8870;50.950;11.762;2023-04-05T20:39:38;98734.34;;;3.72;99.24
17505;BME280;8870;50.950;11.762;2023-04-05T20:45:40;98733.28;;;3.75;95.98
17505;BME280;8870;50.950;11.762;2023-04-05T20:50:59;98732.75;;;3.69;100.00
17505;BME280;8870;50.950;11.762;2023-04-05T20:56:32;98729.66;;;3.76;100.00
17505;BME280;8870;50.950;11.762;2023-04-05T21:01:53;98727.78;;;3.89;100.00
17505;BME280;8870;50.950;11.762;2023-04-05T21:07:25;98723.03;;;3.81;99.50
17505;BME280;8870;50.950;11.762;2023-04-05T21:12:43;98721.94;;;3.84;100.00
17505;BME280;8870;50.950;11.762;2023-04-05T21:18:18;98715.16;;;3.80;100.00
17505;BME280;8870;50.950;11.762;2023-04-05T21:23:36;98729.84;;;3.73;100.00
17505;BME280;8870;50.950;11.762;2023-04-05T21:29:08;98714.31;;;3.66;100.00
17505;BME280;8870;50.950;11.762;2023-04-05T21:34:31;98715.50;;;3.62;100.00
17505;BME280;8870;50.950;11.762;2023-04-05T21:40:07;98712.31;;;3.57;100.00
17505;BME280;8870;50.950;11.762;2023-04-05T21:45:26;98710.75;;;3.42;100.00
17505;BME280;8870;50.950;11.762;2023-04-05T21:51:01;98707.66;;;3.35;100.00
17505;BME280;8870;50.950;11.762;2023-04-05T21:56:19;98708.94;;;3.29;100.00
17505;BME280;8870;50.950;11.762;2023-04-05T22:01:50;98709.91;;;3.28;100.00
17505;BME280;8870;50.950;11.762;2023-04-05T22:07:11;98712.78;;;3.25;100.00
17505;BME280;8870;50.950;11.762;2023-04-05T22:12:42;98720.88;;;3.23;100.00
17505;BME280;8870;50.950;11.762;2023-04-05T22:18:00;98712.06;;;3.23;100.00
17505;BME280;8870;50.950;11.762;2023-04-05T22:23:35;98710.34;;;3.22;100.00
17505;BME280;8870;50.950;11.762;2023-04-05T22:28:53;98711.31;;;3.21;100.00
17505;BME280;8870;50.950;11.762;2023-04-05T22:34:25;98714.72;;;3.23;100.00
17505;BME280;8870;50.950;11.762;2023-04-05T22:39:46;98712.78;;;3.25;100.00
17505;BME280;8870;50.950;11.762;2023-04-05T22:45:17;98704.91;;;3.23;100.00
17505;BME280;8870;50.950;11.762;2023-04-05T22:50:35;98704.34;;;3.18;100.00
17505;BME280;8870;50.950;11.762;2023-04-05T23:07:38;98683.91;;;3.06;100.00
17505;BME280;8870;50.950;11.762;2023-04-05T23:13:09;98685.31;;;2.99;100.00
17505;BME280;8870;50.950;11.762;2023-04-05T23:18:27;98688.59;;;3.02;100.00
17505;BME280;8870;50.950;11.762;2023-04-05T23:24:06;98683.28;;;3.02;100.00
17505;BME280;8870;50.950;11.762;2023-04-05T23:29:24;98680.88;;;2.99;100.00
17505;BME280;8870;50.950;11.762;2023-04-05T23:34:55;98679.88;;;3.00;100.00
17505;BME280;8870;50.950;11.762;2023-04-05T23:40:16;98673.09;;;2.96;100.00
17505;BME280;8870;50.950;11.762;2023-04-05T23:45:47;98663.72;;;2.90;100.00
17505;BME280;8870;50.950;11.762;2023-04-05T23:51:05;98668.94;;;2.79;100.00
17505;BME280;8870;50.950;11.762;2023-04-05T23:56:40;98659.44;;;2.62;100.00
